Time,TemperatureF,DewpointF,PressureIn,WindDirection,WindDirectionDegrees,WindSpeedMPH,WindSpeedGustMPH,Humidity,HourlyPrecipIn,Conditions,Clouds,dailyrainin,SoftwareType,DateUTC
2013-11-17 00:06:00,59.8,57.0,29.79,South,181,14.0,20.0,91,0.01,,,0.01,weatherlink.com 1.10,2013-11-17 05:06:00,
2013-11-17 00:21:00,59.7,58.0,29.79,SSW,211,7.0,18.0,93,0.01,,,0.01,weatherlink.com 1.10,2013-11-17 05:21:00,
2013-11-17 00:37:00,59.9,58.0,29.80,SSW,201,8.0,18.0,93,0.02,,,0.02,weatherlink.com 1.10,2013-11-17 05:37:00,
2013-11-17 00:52:00,59.6,58.0,29.79,SSW,207,4.0,14.0,93,0.05,,,0.05,weatherlink.com 1.10,2013-11-17 05:52:00,
2013-11-17 01:07:00,59.3,58.0,29.77,SSW,201,6.0,14.0,94,0.08,,,0.09,weatherlink.com 1.10,2013-11-17 06:07:00,
2013-11-17 01:22:00,59.4,58.0,29.75,SSW,206,9.0,15.0,95,0.10,,,0.11,weatherlink.com 1.10,2013-11-17 06:22:00,
2013-11-17 01:38:00,59.4,58.0,29.75,SSW,198,8.0,13.0,95,0.09,,,0.11,weatherlink.com 1.10,2013-11-17 06:38:00,
2013-11-17 01:52:00,59.5,58.0,29.75,South,186,8.0,13.0,95,0.06,,,0.11,weatherlink.com 1.10,2013-11-17 06:52:00,
2013-11-17 02:08:00,59.6,58.0,29.75,South,190,14.0,15.0,95,0.03,,,0.12,weatherlink.com 1.10,2013-11-17 07:08:00,
2013-11-17 02:24:00,59.8,58.0,29.73,SSW,198,12.0,20.0,95,0.04,,,0.15,weatherlink.com 1.10,2013-11-17 07:24:00,
2013-11-17 02:38:00,60.1,59.0,29.73,SW,220,11.0,20.0,95,0.06,,,0.17,weatherlink.com 1.10,2013-11-17 07:38:00,
2013-11-17 02:53:00,60.1,59.0,29.76,SSW,200,18.0,18.0,95,0.08,,,0.19,weatherlink.com 1.10,2013-11-17 07:53:00,
2013-11-17 03:11:00,59.8,58.0,29.67,SSE,157,6.0,23.0,95,0.11,,,0.24,weatherlink.com 1.10,2013-11-17 08:11:00,
2013-11-17 03:24:00,59.7,58.0,29.71,SSE,167,15.0,22.0,95,0.08,,,0.24,weatherlink.com 1.10,2013-11-17 08:24:00,
2013-11-17 03:41:00,59.6,58.0,29.70,South,179,9.0,18.0,94,0.06,,,0.24,weatherlink.com 1.10,2013-11-17 08:41:00,
2013-11-17 03:55:00,59.6,58.0,29.70,South,172,8.0,13.0,93,0.05,,,0.24,weatherlink.com 1.10,2013-11-17 08:55:00,
2013-11-17 04:10:00,59.6,57.0,29.70,SSW,204,7.0,15.0,91,0.01,,,0.24,weatherlink.com 1.10,2013-11-17 09:10:00,
2013-11-17 04:27:00,59.5,57.0,29.70,South,182,4.0,12.0,90,0.00,,,0.24,weatherlink.com 1.10,2013-11-17 09:27:00,
2013-11-17 04:42:00,59.3,56.0,29.71,South,188,3.0,10.0,89,0.00,,,0.24,weatherlink.com 1.10,2013-11-17 09:42:00,
2013-11-17 04:56:00,59.4,56.0,29.71,SSW,200,7.0,15.0,89,0.00,,,0.24,weatherlink.com 1.10,2013-11-17 09:56:00,
2013-11-17 05:11:00,59.5,56.0,29.71,SSE,156,4.0,17.0,89,0.00,,,0.24,weatherlink.com 1.10,2013-11-17 10:11:00,
2013-11-17 05:27:00,59.3,56.0,29.71,South,169,11.0,16.0,90,0.00,,,0.24,weatherlink.com 1.10,2013-11-17 10:27:00,
2013-11-17 05:41:00,58.9,57.0,29.70,SSW,196,13.0,16.0,92,0.00,,,0.24,weatherlink.com 1.10,2013-11-17 10:41:00,
2013-11-17 05:56:00,58.7,57.0,29.70,South,178,7.0,15.0,93,0.00,,,0.24,weatherlink.com 1.10,2013-11-17 10:56:00,
2013-11-17 06:14:00,58.6,57.0,29.70,SSW,209,5.0,17.0,94,0.00,,,0.24,weatherlink.com 1.10,2013-11-17 11:14:00,
2013-11-17 06:28:00,58.5,57.0,29.69,SSW,196,7.0,16.0,94,0.00,,,0.24,weatherlink.com 1.10,2013-11-17 11:28:00,
2013-11-17 06:42:00,58.5,57.0,29.69,South,173,7.0,15.0,95,0.00,,,0.24,weatherlink.com 1.10,2013-11-17 11:42:00,
2013-11-17 06:57:00,58.5,57.0,29.69,SSW,212,7.0,16.0,95,0.00,,,0.24,weatherlink.com 1.10,2013-11-17 11:57:00,
2013-11-17 07:13:00,58.9,57.0,29.68,South,189,3.0,15.0,94,0.01,,,0.25,weatherlink.com 1.10,2013-11-17 12:13:00,
2013-11-17 07:28:00,59.0,57.0,29.66,SSW,202,9.0,16.0,94,0.01,,,0.25,weatherlink.com 1.10,2013-11-17 12:28:00,
2013-11-17 07:43:00,59.1,57.0,29.66,South,188,7.0,17.0,93,0.01,,,0.25,weatherlink.com 1.10,2013-11-17 12:43:00,
2013-11-17 07:58:00,59.1,57.0,29.66,South,176,9.0,16.0,93,0.01,,,0.25,weatherlink.com 1.10,2013-11-17 12:58:00,
2013-11-17 08:15:00,59.4,57.0,29.65,SSW,193,8.0,17.0,93,0.00,,,0.25,weatherlink.com 1.10,2013-11-17 13:15:00,
2013-11-17 08:31:00,60.4,58.0,29.65,South,176,8.0,19.0,92,0.00,,,0.25,weatherlink.com 1.10,2013-11-17 13:31:00,
2013-11-17 08:44:00,60.6,58.0,29.64,SSE,167,13.0,21.0,91,0.00,,,0.25,weatherlink.com 1.10,2013-11-17 13:44:00,
2013-11-17 09:00:00,60.9,58.0,29.64,South,188,7.0,19.0,91,0.00,,,0.25,weatherlink.com 1.10,2013-11-17 14:00:00,
2013-11-17 09:16:00,61.5,59.0,29.65,SW,219,12.0,18.0,90,0.00,,,0.25,weatherlink.com 1.10,2013-11-17 14:16:00,
2013-11-17 09:32:00,62.1,59.0,29.65,SSW,205,7.0,22.0,89,0.00,,,0.25,weatherlink.com 1.10,2013-11-17 14:32:00,
2013-11-17 09:46:00,62.6,59.0,29.65,SSW,197,14.0,19.0,88,0.00,,,0.25,weatherlink.com 1.10,2013-11-17 14:46:00,
2013-11-17 10:02:00,62.6,59.0,29.64,SSW,192,8.0,28.0,88,0.00,,,0.25,weatherlink.com 1.10,2013-11-17 15:02:00,
2013-11-17 10:16:00,62.8,59.0,29.63,South,188,9.0,26.0,88,0.00,,,0.25,weatherlink.com 1.10,2013-11-17 15:16:00,
2013-11-17 10:31:00,63.2,60.0,29.62,SW,226,9.0,21.0,88,0.00,,,0.25,weatherlink.com 1.10,2013-11-17 15:31:00,
2013-11-17 10:46:00,63.2,59.0,29.63,SSW,192,7.0,19.0,87,0.00,,,0.25,weatherlink.com 1.10,2013-11-17 15:46:00,
2013-11-17 11:02:00,63.2,59.0,29.63,SSW,196,8.0,21.0,87,0.00,,,0.25,weatherlink.com 1.10,2013-11-17 16:02:00,
2013-11-17 11:17:00,63.7,60.0,29.61,SSW,194,22.0,26.0,87,0.00,,,0.25,weatherlink.com 1.10,2013-11-17 16:17:00,
2013-11-17 11:32:00,63.6,60.0,29.61,South,187,17.0,21.0,87,0.00,,,0.25,weatherlink.com 1.10,2013-11-17 16:32:00,
2013-11-17 11:48:00,63.3,60.0,29.58,SSW,202,17.0,22.0,89,0.00,,,0.25,weatherlink.com 1.10,2013-11-17 16:48:00,
2013-11-17 12:03:00,64.0,60.0,29.56,SSW,192,7.0,23.0,87,0.00,,,0.25,weatherlink.com 1.10,2013-11-17 17:03:00,
2013-11-17 12:18:00,64.6,60.0,29.54,SSW,207,14.0,26.0,86,0.00,,,0.25,weatherlink.com 1.10,2013-11-17 17:18:00,
2013-11-17 12:33:00,64.7,60.0,29.52,SSW,211,11.0,27.0,85,0.00,,,0.25,weatherlink.com 1.10,2013-11-17 17:33:00,
2013-11-17 12:49:00,64.9,60.0,29.51,South,188,14.0,28.0,85,0.00,,,0.25,weatherlink.com 1.10,2013-11-17 17:49:00,
2013-11-17 13:04:00,64.8,61.0,29.48,SSE,163,7.0,25.0,86,0.00,,,0.25,weatherlink.com 1.10,2013-11-17 18:04:00,
2013-11-17 13:19:00,64.9,61.0,29.47,South,178,19.0,32.0,86,0.00,,,0.25,weatherlink.com 1.10,2013-11-17 18:19:00,
2013-11-17 13:34:00,64.8,61.0,29.46,SSW,193,12.0,29.0,86,0.00,,,0.25,weatherlink.com 1.10,2013-11-17 18:34:00,
2013-11-17 13:49:00,64.8,61.0,29.45,SW,215,13.0,32.0,87,0.00,,,0.25,weatherlink.com 1.10,2013-11-17 18:49:00,
2013-11-17 14:04:00,64.7,61.0,29.43,SSW,209,16.0,22.0,87,0.00,,,0.25,weatherlink.com 1.10,2013-11-17 19:04:00,
2013-11-17 14:21:00,64.9,61.0,29.41,South,188,11.0,26.0,87,0.00,,,0.25,weatherlink.com 1.10,2013-11-17 19:21:00,
2013-11-17 14:36:00,64.9,61.0,29.41,SW,230,22.0,25.0,87,0.00,,,0.25,weatherlink.com 1.10,2013-11-17 19:36:00,
2013-11-17 14:51:00,64.8,61.0,29.40,SSW,203,13.0,23.0,88,0.00,,,0.25,weatherlink.com 1.10,2013-11-17 19:51:00,
2013-11-17 15:07:00,64.3,61.0,29.39,SSW,202,7.0,27.0,89,0.00,,,0.25,weatherlink.com 1.10,2013-11-17 20:07:00,
2013-11-17 15:21:00,64.4,61.0,29.38,SSE,165,11.0,25.0,89,0.01,,,0.26,weatherlink.com 1.10,2013-11-17 20:21:00,
2013-11-17 15:37:00,64.6,61.0,29.36,SW,225,26.0,26.0,89,0.01,,,0.26,weatherlink.com 1.10,2013-11-17 20:37:00,
2013-11-17 15:52:00,65.0,61.0,29.33,SSE,159,23.0,24.0,88,0.02,,,0.27,weatherlink.com 1.10,2013-11-17 20:52:00,
2013-11-17 15:58:00,64.2,61.0,29.32,SSW,198,19.0,30.0,90,0.06,,,0.31,weatherlink.com 1.10,2013-11-17 20:58:00,
2013-11-17 16:04:00,63.4,60.0,29.34,WSW,257,37.0,57.0,89,0.12,,,0.37,weatherlink.com 1.10,2013-11-17 21:04:00,
2013-11-17 16:19:00,58.4,55.0,29.39,SW,232,8.0,26.0,88,0.23,,,0.49,weatherlink.com 1.10,2013-11-17 21:19:00,
2013-11-17 16:36:00,57.8,55.0,29.37,SW,236,22.0,35.0,91,0.32,,,0.58,weatherlink.com 1.10,2013-11-17 21:36:00,
2013-11-17 16:51:00,58.4,56.0,29.36,WSW,247,14.0,28.0,90,0.32,,,0.59,weatherlink.com 1.10,2013-11-17 21:51:00,
2013-11-17 17:06:00,61.8,57.0,29.36,WSW,253,10.0,29.0,83,0.21,,,0.59,weatherlink.com 1.10,2013-11-17 22:06:00,
2013-11-17 17:21:00,62.2,57.0,29.39,NW,315,18.0,31.0,83,0.08,,,0.59,weatherlink.com 1.10,2013-11-17 22:21:00,
2013-11-17 17:36:00,62.2,56.0,29.42,WSW,252,13.0,28.0,81,0.01,,,0.59,weatherlink.com 1.10,2013-11-17 22:36:00,
2013-11-17 17:51:00,60.2,52.0,29.44,SW,234,8.0,39.0,73,0.00,,,0.59,weatherlink.com 1.10,2013-11-17 22:51:00,
2013-11-17 18:06:00,58.7,51.0,29.45,West,265,21.0,28.0,75,0.00,,,0.59,weatherlink.com 1.10,2013-11-17 23:06:00,
2013-11-17 18:23:00,57.4,50.0,29.47,WNW,286,12.0,35.0,75,0.00,,,0.59,weatherlink.com 1.10,2013-11-17 23:23:00,
2013-11-17 18:38:00,56.0,49.0,29.49,SW,236,11.0,36.0,76,0.00,,,0.59,weatherlink.com 1.10,2013-11-17 23:38:00,
2013-11-17 18:52:00,55.1,48.0,29.50,WSW,251,12.0,31.0,77,0.00,,,0.59,weatherlink.com 1.10,2013-11-17 23:52:00,
2013-11-17 19:07:00,54.4,47.0,29.52,WNW,286,16.0,33.0,77,0.00,,,0.59,weatherlink.com 1.10,2013-11-18 00:07:00,
2013-11-17 19:23:00,53.6,47.0,29.53,West,267,11.0,32.0,78,0.00,,,0.59,weatherlink.com 1.10,2013-11-18 00:23:00,
2013-11-17 19:37:00,53.2,47.0,29.55,West,263,5.0,27.0,80,0.00,,,0.59,weatherlink.com 1.10,2013-11-18 00:37:00,
2013-11-17 19:53:00,52.6,47.0,29.57,West,261,10.0,25.0,80,0.00,,,0.59,weatherlink.com 1.10,2013-11-18 00:53:00,
2013-11-17 20:10:00,52.6,46.0,29.57,West,263,14.0,32.0,78,0.00,,,0.59,weatherlink.com 1.10,2013-11-18 01:10:00,
2013-11-17 20:24:00,52.0,45.0,29.59,WSW,252,16.0,29.0,77,0.00,,,0.59,weatherlink.com 1.10,2013-11-18 01:24:00,
2013-11-17 20:40:00,51.5,45.0,29.60,WSW,244,13.0,34.0,78,0.00,,,0.59,weatherlink.com 1.10,2013-11-18 01:40:00,
2013-11-17 20:54:00,50.6,43.0,29.62,West,273,13.0,37.0,75,0.00,,,0.59,weatherlink.com 1.10,2013-11-18 01:54:00,
2013-11-17 21:09:00,49.8,43.0,29.62,WNW,293,10.0,32.0,76,0.00,,,0.59,weatherlink.com 1.10,2013-11-18 02:09:00,
2013-11-17 21:25:00,49.3,43.0,29.63,West,277,16.0,29.0,79,0.00,,,0.59,weatherlink.com 1.10,2013-11-18 02:25:00,
2013-11-17 21:42:00,49.3,43.0,29.64,West,277,15.0,30.0,79,0.00,,,0.59,weatherlink.com 1.10,2013-11-18 02:42:00,
2013-11-17 21:56:00,49.4,44.0,29.65,West,273,15.0,30.0,80,0.00,,,0.59,weatherlink.com 1.10,2013-11-18 02:56:00,
2013-11-17 22:11:00,49.4,43.0,29.66,WNW,294,9.0,29.0,79,0.00,,,0.59,weatherlink.com 1.10,2013-11-18 03:11:00,
2013-11-17 22:27:00,49.3,43.0,29.66,NW,316,14.0,25.0,80,0.00,,,0.59,weatherlink.com 1.10,2013-11-18 03:27:00,
2013-11-17 22:41:00,49.1,43.0,29.67,West,265,14.0,24.0,80,0.00,,,0.59,weatherlink.com 1.10,2013-11-18 03:41:00,
2013-11-17 22:56:00,49.0,43.0,29.68,WNW,300,15.0,28.0,81,0.00,,,0.59,weatherlink.com 1.10,2013-11-18 03:56:00,
2013-11-17 23:12:00,48.8,43.0,29.69,West,270,5.0,26.0,81,0.00,,,0.59,weatherlink.com 1.10,2013-11-18 04:12:00,
2013-11-17 23:27:00,48.7,43.0,29.70,WNW,282,16.0,20.0,81,0.00,,,0.59,weatherlink.com 1.10,2013-11-18 04:27:00,
2013-11-17 23:43:00,48.5,43.0,29.70,West,269,11.0,28.0,81,0.00,,,0.59,weatherlink.com 1.10,2013-11-18 04:43:00,
2013-11-17 23:58:00,47.8,42.0,29.70,West,259,4.0,22.0,80,0.00,,,0.59,weatherlink.com 1.10,2013-11-18 04:58:00,